createdAt,value
2022-07-25T00:00:12.762Z,80.60
2022-07-25T00:03:55.186Z,80.40
2022-07-25T00:07:38.550Z,80.50
2022-07-25T00:11:20.432Z,80.60
2022-07-25T00:15:02.540Z,80.80
2022-07-25T00:18:44.567Z,80.90
2022-07-25T00:22:26.486Z,81.10
2022-07-25T00:26:08.375Z,81.20
2022-07-25T00:29:50.547Z,81.20
2022-07-25T00:33:32.396Z,81.30
2022-07-25T00:37:14.260Z,81.50
2022-07-25T00:40:56.305Z,81.50
2022-07-25T00:44:38.150Z,81.70
2022-07-25T00:48:20.012Z,81.90
2022-07-25T00:52:01.930Z,82.10
2022-07-25T00:55:43.921Z,82.30
2022-07-25T00:59:25.880Z,82.60
2022-07-25T01:03:08.032Z,82.90
2022-07-25T01:06:49.935Z,83.00
2022-07-25T01:10:32.970Z,83.20
2022-07-25T01:14:14.806Z,83.70
2022-07-25T01:17:56.686Z,84.00
2022-07-25T01:21:39.992Z,84.20
2022-07-25T01:25:22.898Z,84.20
2022-07-25T01:29:05.380Z,84.10
2022-07-25T01:32:47.937Z,84.20
2022-07-25T01:36:29.856Z,84.40
2022-07-25T01:40:12.919Z,84.20
2022-07-25T01:43:54.811Z,84.00
2022-07-25T01:47:36.881Z,83.80
2022-07-25T01:51:20.414Z,83.50
2022-07-25T01:55:02.543Z,83.30
2022-07-25T01:58:44.444Z,83.10
2022-07-25T02:02:26.876Z,83.30
2022-07-25T02:06:08.915Z,83.60
2022-07-25T02:09:54.872Z,83.10
2022-07-25T02:13:38.600Z,82.80
2022-07-25T02:17:20.501Z,82.70
2022-07-25T02:21:02.514Z,82.60
2022-07-25T02:24:44.467Z,82.20
2022-07-25T02:28:26.495Z,81.40
2022-07-25T02:32:08.303Z,80.30
2022-07-25T02:35:50.417Z,79.10
2022-07-25T02:39:32.315Z,78.90
2022-07-25T02:43:14.286Z,78.60
2022-07-25T02:46:57.473Z,78.20
2022-07-25T02:50:39.692Z,77.80
2022-07-25T02:54:21.507Z,77.60
2022-07-25T02:58:03.397Z,77.60
2022-07-25T03:01:45.355Z,77.80
2022-07-25T03:05:27.372Z,77.80
2022-07-25T03:09:09.446Z,77.30
2022-07-25T03:12:51.304Z,76.80
2022-07-25T03:16:33.166Z,76.60
2022-07-25T03:20:15.046Z,76.80
2022-07-25T03:23:56.878Z,76.50
2022-07-25T03:27:39.290Z,75.80
2022-07-25T03:31:21.172Z,76.10
2022-07-25T03:35:03.061Z,76.00
2022-07-25T03:38:44.968Z,75.90
2022-07-25T03:42:26.999Z,75.70
2022-07-25T03:46:08.988Z,76.20
2022-07-25T03:49:51.091Z,76.00
2022-07-25T03:53:33.084Z,76.20
2022-07-25T03:57:14.888Z,75.90
2022-07-25T04:00:56.717Z,76.00
2022-07-25T04:04:40.506Z,75.70
2022-07-25T04:08:22.366Z,75.90
2022-07-25T04:12:04.561Z,76.00
2022-07-25T04:15:46.586Z,76.00
2022-07-25T04:19:28.955Z,76.00
2022-07-25T04:23:10.917Z,76.10
2022-07-25T04:26:52.922Z,76.60
2022-07-25T04:30:34.840Z,76.60
2022-07-25T04:34:16.841Z,77.10
2022-07-25T04:37:58.745Z,76.50
2022-07-25T04:41:40.834Z,76.40
2022-07-25T04:45:23.594Z,76.20
2022-07-25T04:49:05.507Z,76.30
2022-07-25T04:52:47.545Z,76.20
2022-07-25T04:56:29.421Z,76.40
2022-07-25T05:00:11.938Z,76.40
2022-07-25T05:03:53.744Z,76.40
2022-07-25T05:07:36.986Z,76.10
2022-07-25T05:11:18.831Z,76.20
2022-07-25T05:15:00.723Z,76.20
2022-07-25T05:18:42.631Z,76.40
2022-07-25T05:22:28.302Z,76.90
2022-07-25T05:26:10.946Z,77.20
2022-07-25T05:29:52.811Z,77.30
2022-07-25T05:33:35.113Z,77.10
2022-07-25T05:37:17.021Z,77.00
2022-07-25T05:40:58.919Z,76.80
2022-07-25T05:44:40.737Z,77.10
2022-07-25T05:48:22.568Z,77.00
2022-07-25T05:52:07.291Z,76.60
2022-07-25T05:55:52.904Z,76.40
2022-07-25T05:59:34.907Z,76.20
2022-07-25T06:03:18.447Z,75.90
2022-07-25T06:07:01.515Z,75.70
2022-07-25T06:10:43.367Z,75.20
2022-07-25T06:14:25.202Z,74.90
2022-07-25T06:18:07.099Z,74.80
2022-07-25T06:21:49.150Z,75.00
2022-07-25T06:25:31.277Z,74.00
2022-07-25T06:29:13.876Z,73.80
2022-07-25T06:32:55.885Z,73.30
2022-07-25T06:36:38.195Z,72.20
2022-07-25T06:40:20.302Z,71.40
2022-07-25T06:44:02.574Z,70.70
2022-07-25T06:47:45.325Z,70.30
2022-07-25T06:51:27.246Z,70.60
2022-07-25T06:55:10.277Z,71.00
2022-07-25T06:58:53.394Z,71.30
2022-07-25T07:02:36.577Z,71.70
2022-07-25T07:06:18.478Z,72.10
2022-07-25T07:10:00.314Z,72.40
2022-07-25T07:13:42.470Z,72.20
2022-07-25T07:17:24.344Z,71.90
2022-07-25T07:21:06.673Z,70.00
2022-07-25T07:24:49.774Z,69.50
2022-07-25T07:28:32.084Z,68.20
2022-07-25T07:32:13.972Z,67.50
2022-07-25T07:35:58.788Z,66.80
2022-07-25T07:39:40.625Z,65.20
2022-07-25T07:43:27.682Z,64.90
2022-07-25T07:47:14.536Z,64.00
2022-07-25T07:50:57.116Z,64.20
2022-07-25T07:54:59.460Z,64.00
2022-07-25T07:58:41.489Z,64.40
2022-07-25T08:02:23.389Z,66.10
2022-07-25T08:06:05.735Z,65.70
2022-07-25T08:09:47.609Z,65.90
2022-07-25T08:13:32.021Z,66.20
2022-07-25T08:17:15.591Z,65.50
2022-07-25T08:21:00.365Z,67.80
2022-07-25T08:24:42.203Z,66.00
2022-07-25T08:28:24.053Z,66.60
2022-07-25T08:32:05.976Z,65.90
2022-07-25T08:35:51.747Z,66.00
2022-07-25T08:39:33.615Z,66.30
2022-07-25T08:43:17.257Z,67.50
2022-07-25T08:47:00.498Z,68.00
2022-07-25T08:50:42.920Z,68.50
2022-07-25T08:54:24.950Z,68.40
2022-07-25T08:58:06.790Z,68.00
2022-07-25T09:01:48.781Z,67.30
2022-07-25T09:05:32.029Z,66.50
2022-07-25T09:09:13.879Z,66.70
2022-07-25T09:13:00.936Z,66.20
2022-07-25T09:16:45.516Z,65.80
2022-07-25T09:20:54.953Z,65.30
2022-07-25T09:24:36.791Z,65.70
2022-07-25T09:28:19.913Z,63.90
2022-07-25T09:32:13.369Z,63.70
2022-07-25T09:35:56.457Z,63.60
2022-07-25T09:39:46.000Z,63.00
2022-07-25T09:43:40.308Z,63.50
2022-07-25T09:47:22.212Z,63.30
2022-07-25T09:51:04.584Z,63.20
2022-07-25T09:54:46.411Z,64.50
2022-07-25T09:58:29.352Z,64.70
2022-07-25T10:02:53.100Z,65.40
2022-07-25T10:06:59.689Z,66.10
2022-07-25T10:10:42.415Z,64.60
2022-07-25T10:14:24.238Z,63.70
2022-07-25T10:18:08.321Z,64.40
2022-07-25T10:21:55.810Z,64.30
2022-07-25T10:25:38.873Z,65.30
2022-07-25T10:29:20.669Z,64.70
2022-07-25T10:33:04.422Z,64.90
2022-07-25T10:36:48.321Z,64.00
2022-07-25T10:40:44.475Z,61.80
2022-07-25T10:44:30.547Z,58.80
2022-07-25T10:48:21.879Z,53.60
2022-07-25T10:52:04.813Z,52.90
2022-07-25T10:56:05.637Z,51.80
2022-07-25T10:59:48.468Z,53.30
2022-07-25T11:03:33.813Z,53.70
2022-07-25T11:07:20.227Z,53.30
2022-07-25T11:11:02.726Z,50.40
2022-07-25T11:14:44.645Z,49.60
2022-07-25T11:18:40.444Z,48.50
2022-07-25T11:22:22.901Z,48.60
2022-07-25T11:26:11.851Z,47.50
2022-07-25T11:30:09.294Z,47.20
2022-07-25T11:33:51.364Z,48.90
2022-07-25T11:37:39.125Z,47.50
2022-07-25T11:41:31.010Z,46.80
2022-07-25T11:45:33.773Z,47.30
2022-07-25T11:49:15.892Z,47.10
2022-07-25T11:53:02.685Z,43.70
2022-07-25T11:56:47.140Z,43.80
2022-07-25T12:00:29.665Z,44.80
2022-07-25T12:04:19.445Z,45.90
2022-07-25T12:08:12.950Z,46.20
2022-07-25T12:12:03.762Z,47.60
2022-07-25T12:15:45.585Z,48.40
2022-07-25T12:19:27.443Z,48.10
2022-07-25T12:23:11.254Z,48.90
2022-07-25T12:26:53.099Z,49.40
2022-07-25T12:30:35.111Z,49.50
2022-07-25T12:34:16.971Z,49.20
2022-07-25T12:37:58.999Z,48.60
2022-07-25T12:41:42.684Z,49.40
2022-07-25T12:45:25.182Z,49.50
2022-07-25T12:49:07.342Z,50.40
2022-07-25T12:52:49.335Z,51.30
2022-07-25T12:56:31.239Z,51.00
2022-07-25T13:00:16.530Z,51.30
2022-07-25T13:03:58.507Z,49.20
2022-07-25T13:07:40.356Z,47.50
2022-07-25T13:11:22.183Z,48.20
2022-07-25T13:15:04.902Z,48.50
2022-07-25T13:18:46.824Z,49.30
2022-07-25T13:22:28.828Z,49.30
2022-07-25T13:26:10.933Z,49.60
2022-07-25T13:29:54.773Z,50.50
2022-07-25T13:33:36.941Z,51.60
2022-07-25T13:37:18.828Z,51.30
2022-07-25T13:41:02.674Z,49.90
2022-07-25T13:44:44.508Z,49.50
2022-07-25T13:48:30.355Z,49.00
2022-07-25T13:52:13.341Z,49.70
2022-07-25T13:55:56.987Z,50.60
2022-07-25T13:59:38.855Z,51.50
2022-07-25T14:03:20.950Z,51.30
2022-07-25T14:07:03.013Z,49.20
2022-07-25T14:10:44.908Z,47.70
2022-07-25T14:14:26.921Z,48.60
2022-07-25T14:18:09.758Z,49.30
2022-07-25T14:21:51.671Z,49.30
2022-07-25T14:25:33.538Z,50.30
2022-07-25T14:29:15.770Z,50.90
2022-07-25T14:32:57.677Z,51.80
2022-07-25T14:36:39.796Z,53.10
2022-07-25T14:40:22.159Z,53.70
2022-07-25T14:44:04.288Z,54.50
2022-07-25T14:47:47.531Z,54.70
2022-07-25T14:51:30.531Z,55.30
2022-07-25T14:55:12.385Z,55.30
2022-07-25T14:58:54.285Z,54.30
2022-07-25T15:02:36.134Z,54.00
2022-07-25T15:06:18.387Z,54.30
2022-07-25T15:10:00.553Z,52.80
2022-07-25T15:13:42.374Z,52.50
2022-07-25T15:17:24.235Z,51.90
2022-07-25T15:21:06.281Z,50.80
2022-07-25T15:25:23.042Z,50.60
2022-07-25T15:28:50.160Z,50.80
2022-07-25T15:32:32.056Z,51.50
2022-07-25T15:36:13.908Z,51.20
2022-07-25T15:39:56.117Z,51.00
2022-07-25T15:43:39.202Z,51.00
2022-07-25T15:47:21.071Z,51.20
2022-07-25T15:51:02.946Z,50.00
2022-07-25T15:54:45.057Z,50.20
2022-07-25T15:58:27.143Z,50.50
2022-07-25T16:02:13.082Z,51.20
2022-07-25T16:05:56.652Z,52.20
2022-07-25T16:09:38.601Z,53.00
2022-07-25T16:13:20.404Z,52.10
2022-07-25T16:17:03.080Z,51.30
2022-07-25T16:20:44.889Z,52.40
2022-07-25T16:24:26.733Z,53.10
2022-07-25T16:28:08.594Z,52.90
2022-07-25T16:31:50.510Z,52.80
2022-07-25T16:35:32.787Z,53.70
2022-07-25T16:39:14.931Z,54.70
2022-07-25T16:42:58.902Z,55.00
2022-07-25T16:46:41.431Z,55.30
2022-07-25T16:50:23.607Z,55.60
2022-07-25T16:54:05.536Z,55.80
2022-07-25T16:57:47.467Z,55.10
2022-07-25T17:01:29.330Z,55.30
2022-07-25T17:05:11.307Z,55.70
2022-07-25T17:08:53.264Z,55.90
2022-07-25T17:12:35.327Z,55.50
2022-07-25T17:16:17.200Z,55.50
2022-07-25T17:20:00.159Z,56.30
2022-07-25T17:23:42.302Z,56.50
2022-07-25T17:27:24.320Z,57.20
2022-07-25T17:31:06.441Z,57.60
2022-07-25T17:34:48.421Z,58.00
2022-07-25T17:38:34.881Z,57.80
2022-07-25T17:42:22.265Z,58.00
2022-07-25T17:46:04.379Z,58.10
2022-07-25T17:49:46.602Z,58.30
2022-07-25T17:53:28.585Z,55.40
2022-07-25T17:57:10.715Z,55.00
2022-07-25T18:00:54.028Z,55.00
2022-07-25T18:04:38.769Z,55.10
2022-07-25T18:08:22.156Z,55.90
2022-07-25T18:12:05.827Z,54.20
2022-07-25T18:15:48.198Z,54.10
2022-07-25T18:19:30.080Z,54.70
2022-07-25T18:23:12.070Z,54.80
2022-07-25T18:26:53.999Z,54.90
2022-07-25T18:30:35.863Z,55.40
2022-07-25T18:34:20.760Z,54.80
2022-07-25T18:38:02.816Z,55.00
2022-07-25T18:41:44.738Z,54.50
2022-07-25T18:45:26.660Z,54.40
2022-07-25T18:49:08.848Z,54.30
2022-07-25T18:52:50.849Z,54.30
2022-07-25T18:56:32.964Z,54.50
2022-07-25T19:00:16.218Z,54.20
2022-07-25T19:03:58.108Z,53.20
2022-07-25T19:07:40.053Z,53.00
2022-07-25T19:11:23.093Z,52.50
2022-07-25T19:15:05.937Z,53.20
2022-07-25T19:18:47.826Z,53.00
2022-07-25T19:22:29.713Z,53.40
2022-07-25T19:26:11.690Z,53.80
2022-07-25T19:29:54.806Z,54.00
2022-07-25T19:33:37.464Z,54.30
2022-07-25T19:37:19.262Z,54.50
2022-07-25T19:41:01.918Z,54.60
2022-07-25T19:44:43.749Z,54.80
2022-07-25T19:48:25.685Z,54.70
2022-07-25T19:52:09.104Z,54.70
2022-07-25T19:55:51.044Z,55.80
2022-07-25T19:59:33.186Z,55.40
2022-07-25T20:03:15.665Z,54.90
2022-07-25T20:06:59.507Z,55.10
2022-07-25T20:10:41.551Z,54.70
2022-07-25T20:14:24.099Z,55.20
2022-07-25T20:18:05.938Z,55.00
2022-07-25T20:21:48.671Z,54.90
2022-07-25T20:25:30.555Z,54.70
2022-07-25T20:29:12.727Z,54.90
2022-07-25T20:32:54.555Z,55.40
2022-07-25T20:36:36.444Z,55.40
2022-07-25T20:40:19.404Z,55.30
2022-07-25T20:44:02.568Z,55.50
2022-07-25T20:47:44.851Z,55.80
2022-07-25T20:51:26.960Z,55.90
2022-07-25T20:55:09.051Z,56.10
2022-07-25T20:58:51.091Z,56.70
2022-07-25T21:02:33.666Z,57.20
2022-07-25T21:06:15.699Z,57.70
2022-07-25T21:09:57.535Z,58.10
2022-07-25T21:13:39.529Z,58.40
2022-07-25T21:17:21.353Z,58.80
2022-07-25T21:21:03.395Z,59.00
2022-07-25T21:24:45.319Z,59.30
2022-07-25T21:28:27.142Z,59.60
2022-07-25T21:32:09.230Z,59.90
2022-07-25T21:35:53.540Z,60.00
2022-07-25T21:39:35.883Z,60.50
2022-07-25T21:43:17.787Z,60.70
2022-07-25T21:46:59.633Z,60.80
2022-07-25T21:50:43.751Z,61.10
2022-07-25T21:54:26.142Z,61.60
2022-07-25T21:58:08.369Z,61.70
2022-07-25T22:01:50.204Z,62.20
2022-07-25T22:05:32.127Z,62.30
2022-07-25T22:09:13.955Z,62.70
2022-07-25T22:12:55.801Z,63.00
2022-07-25T22:16:37.869Z,63.20
2022-07-25T22:20:20.292Z,63.30
2022-07-25T22:24:02.092Z,63.50
2022-07-25T22:27:44.382Z,63.90
2022-07-25T22:31:26.468Z,63.90
2022-07-25T22:35:08.863Z,64.00
2022-07-25T22:38:50.814Z,64.30
2022-07-25T22:42:32.664Z,64.50
2022-07-25T22:46:15.459Z,64.80
2022-07-25T22:49:57.550Z,65.00
2022-07-25T22:53:39.416Z,65.30
2022-07-25T22:57:21.373Z,65.50
2022-07-25T23:01:03.189Z,65.80
2022-07-25T23:04:45.015Z,66.00
2022-07-25T23:08:27.085Z,66.30
2022-07-25T23:12:09.256Z,66.70
2022-07-25T23:15:51.516Z,66.90
2022-07-25T23:19:33.811Z,67.40
2022-07-25T23:23:15.806Z,67.60
2022-07-25T23:26:57.646Z,67.70
2022-07-25T23:30:40.637Z,67.70
2022-07-25T23:34:22.544Z,67.90
2022-07-25T23:38:04.446Z,68.00
2022-07-25T23:41:46.343Z,68.30
2022-07-25T23:45:28.666Z,68.40
2022-07-25T23:49:11.206Z,68.70
2022-07-25T23:52:53.600Z,68.90
2022-07-25T23:56:35.459Z,69.00
